sensor_id;sensor_type;location;lat;lon;timestamp;pressure;altitude;pressure_sealevel;temperature;humidity
18500;BME280;9379;52.134;11.576;2023-05-12T00:00:50;100971.03;;;19.47;63.27
18500;BME280;9379;52.134;11.576;2023-05-12T00:03:17;100963.97;;;19.46;63.85
18500;BME280;9379;52.134;11.576;2023-05-12T00:05:44;100959.34;;;19.17;62.06
18500;BME280;9379;52.134;11.576;2023-05-12T00:08:10;100956.69;;;18.94;65.60
18500;BME280;9379;52.134;11.576;2023-05-12T00:10:39;100958.88;;;19.14;61.94
18500;BME280;9379;52.134;11.576;2023-05-12T00:13:06;100967.56;;;19.53;62.94
18500;BME280;9379;52.134;11.576;2023-05-12T00:15:33;100962.53;;;19.59;62.09
18500;BME280;9379;52.134;11.576;2023-05-12T00:18:00;100967.50;;;19.47;62.03
18500;BME280;9379;52.134;11.576;2023-05-12T00:20:26;100961.91;;;19.48;60.61
18500;BME280;9379;52.134;11.576;2023-05-12T00:22:53;100969.63;;;19.37;62.10
18500;BME280;9379;52.134;11.576;2023-05-12T00:25:20;100964.75;;;19.32;61.85
18500;BME280;9379;52.134;11.576;2023-05-12T00:27:48;100970.44;;;19.22;63.50
18500;BME280;9379;52.134;11.576;2023-05-12T00:30:15;100969.34;;;19.09;62.26
18500;BME280;9379;52.134;11.576;2023-05-12T00:32:42;100975.25;;;19.12;63.24
18500;BME280;9379;52.134;11.576;2023-05-12T00:35:09;100970.84;;;19.34;62.28
18500;BME280;9379;52.134;11.576;2023-05-12T00:37:35;100964.09;;;19.15;61.69
18500;BME280;9379;52.134;11.576;2023-05-12T00:40:02;100967.44;;;19.17;62.48
18500;BME280;9379;52.134;11.576;2023-05-12T00:42:29;100966.34;;;19.27;63.37
18500;BME280;9379;52.134;11.576;2023-05-12T00:44:57;100975.59;;;18.86;64.08
18500;BME280;9379;52.134;11.576;2023-05-12T00:47:24;100983.56;;;18.80;63.89
18500;BME280;9379;52.134;11.576;2023-05-12T00:49:51;100982.19;;;18.84;65.04
18500;BME280;9379;52.134;11.576;2023-05-12T00:52:19;100977.41;;;18.40;66.16
18500;BME280;9379;52.134;11.576;2023-05-12T00:54:46;100980.19;;;18.24;67.46
18500;BME280;9379;52.134;11.576;2023-05-12T00:57:13;100986.59;;;18.15;67.45
18500;BME280;9379;52.134;11.576;2023-05-12T00:59:40;100985.50;;;18.63;65.74
18500;BME280;9379;52.134;11.576;2023-05-12T01:02:08;100996.44;;;18.92;64.88
18500;BME280;9379;52.134;11.576;2023-05-12T01:04:36;100990.84;;;18.09;67.93
18500;BME280;9379;52.134;11.576;2023-05-12T01:07:06;100990.00;;;18.40;67.94
18500;BME280;9379;52.134;11.576;2023-05-12T01:09:35;100989.13;;;18.47;66.74
18500;BME280;9379;52.134;11.576;2023-05-12T01:12:02;100988.84;;;18.42;67.81
18500;BME280;9379;52.134;11.576;2023-05-12T01:14:29;100990.06;;;17.92;68.86
18500;BME280;9379;52.134;11.576;2023-05-12T01:16:58;100987.97;;;17.71;69.74
18500;BME280;9379;52.134;11.576;2023-05-12T01:19:39;100995.50;;;17.76;69.16
18500;BME280;9379;52.134;11.576;2023-05-12T01:22:07;100991.72;;;17.13;71.62
18500;BME280;9379;52.134;11.576;2023-05-12T01:24:45;101001.44;;;17.23;72.13
18500;BME280;9379;52.134;11.576;2023-05-12T01:27:14;100990.34;;;17.42;73.29
18500;BME280;9379;52.134;11.576;2023-05-12T01:29:42;100987.34;;;17.29;71.43
18500;BME280;9379;52.134;11.576;2023-05-12T01:32:10;101000.78;;;17.04;72.45
18500;BME280;9379;52.134;11.576;2023-05-12T01:34:37;101003.44;;;17.20;73.46
18500;BME280;9379;52.134;11.576;2023-05-12T01:37:06;100998.41;;;17.01;74.06
18500;BME280;9379;52.134;11.576;2023-05-12T01:39:33;101009.06;;;16.60;75.20
18500;BME280;9379;52.134;11.576;2023-05-12T01:42:00;101003.44;;;16.88;74.62
18500;BME280;9379;52.134;11.576;2023-05-12T01:44:28;101007.97;;;17.12;74.30
18500;BME280;9379;52.134;11.576;2023-05-12T01:46:55;101008.31;;;16.84;74.64
18500;BME280;9379;52.134;11.576;2023-05-12T01:49:22;101012.34;;;17.05;74.52
18500;BME280;9379;52.134;11.576;2023-05-12T01:51:48;101010.19;;;17.16;73.87
18500;BME280;9379;52.134;11.576;2023-05-12T01:54:15;101022.00;;;16.65;75.16
18500;BME280;9379;52.134;11.576;2023-05-12T01:56:42;101023.09;;;17.13;73.77
18500;BME280;9379;52.134;11.576;2023-05-12T01:59:09;101012.69;;;16.94;73.92
18500;BME280;9379;52.134;11.576;2023-05-12T02:01:37;101020.16;;;16.66;75.46
18500;BME280;9379;52.134;11.576;2023-05-12T02:04:04;101030.78;;;16.83;76.09
18500;BME280;9379;52.134;11.576;2023-05-12T02:06:33;101032.13;;;16.71;75.04
18500;BME280;9379;52.134;11.576;2023-05-12T02:08:59;101045.06;;;16.42;76.17
18500;BME280;9379;52.134;11.576;2023-05-12T02:11:26;101047.44;;;16.53;75.87
18500;BME280;9379;52.134;11.576;2023-05-12T02:13:53;101042.41;;;16.92;74.42
18500;BME280;9379;52.134;11.576;2023-05-12T02:16:20;101040.72;;;17.32;72.85
18500;BME280;9379;52.134;11.576;2023-05-12T02:18:48;101038.56;;;17.27;73.47
18500;BME280;9379;52.134;11.576;2023-05-12T02:21:15;101032.84;;;17.38;71.92
18500;BME280;9379;52.134;11.576;2023-05-12T02:23:42;101036.53;;;17.05;72.79
18500;BME280;9379;52.134;11.576;2023-05-12T02:26:09;101036.03;;;17.50;72.69
18500;BME280;9379;52.134;11.576;2023-05-12T02:28:35;101024.56;;;17.48;72.63
18500;BME280;9379;52.134;11.576;2023-05-12T02:31:02;101041.03;;;17.45;72.59
18500;BME280;9379;52.134;11.576;2023-05-12T02:33:29;101033.63;;;16.74;75.30
18500;BME280;9379;52.134;11.576;2023-05-12T02:35:57;101030.97;;;16.82;75.26
18500;BME280;9379;52.134;11.576;2023-05-12T02:38:24;101039.06;;;16.48;76.62
18500;BME280;9379;52.134;11.576;2023-05-12T02:40:51;101038.06;;;16.49;77.85
18500;BME280;9379;52.134;11.576;2023-05-12T02:43:18;101045.91;;;16.42;77.25
18500;BME280;9379;52.134;11.576;2023-05-12T02:45:45;101035.34;;;16.41;77.34
18500;BME280;9379;52.134;11.576;2023-05-12T02:48:12;101045.22;;;16.40;77.02
18500;BME280;9379;52.134;11.576;2023-05-12T02:50:38;101038.53;;;16.36;77.10
18500;BME280;9379;52.134;11.576;2023-05-12T02:53:06;101035.13;;;16.26;77.56
18500;BME280;9379;52.134;11.576;2023-05-12T02:55:33;101038.44;;;15.86;78.95
18500;BME280;9379;52.134;11.576;2023-05-12T02:58:00;101033.19;;;16.02;78.85
18500;BME280;9379;52.134;11.576;2023-05-12T03:00:26;101038.78;;;16.17;78.04
18500;BME280;9379;52.134;11.576;2023-05-12T03:02:54;101033.22;;;16.60;77.43
18500;BME280;9379;52.134;11.576;2023-05-12T03:05:21;101036.72;;;16.45;77.87
18500;BME280;9379;52.134;11.576;2023-05-12T03:07:48;101036.69;;;16.37;77.58
18500;BME280;9379;52.134;11.576;2023-05-12T03:10:17;101036.28;;;16.23;78.29
18500;BME280;9379;52.134;11.576;2023-05-12T03:12:43;101036.47;;;16.22;78.80
18500;BME280;9379;52.134;11.576;2023-05-12T03:15:10;101040.38;;;16.36;77.47
18500;BME280;9379;52.134;11.576;2023-05-12T03:17:37;101043.34;;;16.24;78.31
18500;BME280;9379;52.134;11.576;2023-05-12T03:20:05;101040.50;;;16.26;78.23
18500;BME280;9379;52.134;11.576;2023-05-12T03:22:32;101034.56;;;16.56;77.11
18500;BME280;9379;52.134;11.576;2023-05-12T03:24:59;101034.47;;;16.24;78.12
18500;BME280;9379;52.134;11.576;2023-05-12T03:27:29;101039.31;;;15.94;79.94
18500;BME280;9379;52.134;11.576;2023-05-12T03:29:56;101041.28;;;16.60;76.60
18500;BME280;9379;52.134;11.576;2023-05-12T03:32:24;101038.56;;;16.52;76.80
18500;BME280;9379;52.134;11.576;2023-05-12T03:34:51;101035.03;;;17.02;75.03
18500;BME280;9379;52.134;11.576;2023-05-12T03:37:18;101030.97;;;17.23;75.75
18500;BME280;9379;52.134;11.576;2023-05-12T03:39:45;101036.00;;;17.01;73.62
18500;BME280;9379;52.134;11.576;2023-05-12T03:42:12;101035.88;;;17.27;73.20
18500;BME280;9379;52.134;11.576;2023-05-12T03:44:40;101041.84;;;16.72;76.18
18500;BME280;9379;52.134;11.576;2023-05-12T03:47:08;101039.78;;;16.58;76.67
18500;BME280;9379;52.134;11.576;2023-05-12T03:49:34;101029.53;;;16.61;75.38
18500;BME280;9379;52.134;11.576;2023-05-12T03:52:01;101029.31;;;17.13;74.37
18500;BME280;9379;52.134;11.576;2023-05-12T03:54:28;101035.88;;;16.52;76.34
18500;BME280;9379;52.134;11.576;2023-05-12T03:56:55;101027.97;;;16.43;77.30
18500;BME280;9379;52.134;11.576;2023-05-12T03:59:21;101031.06;;;16.56;77.82
18500;BME280;9379;52.134;11.576;2023-05-12T04:01:50;101016.50;;;16.75;77.44
18500;BME280;9379;52.134;11.576;2023-05-12T04:04:17;101029.59;;;16.70;77.22
18500;BME280;9379;52.134;11.576;2023-05-12T04:06:44;101034.13;;;16.27;78.77
18500;BME280;9379;52.134;11.576;2023-05-12T04:09:10;101038.66;;;15.92;79.62
18500;BME280;9379;52.134;11.576;2023-05-12T04:11:37;101038.31;;;15.95;80.21
18500;BME280;9379;52.134;11.576;2023-05-12T04:14:04;101041.56;;;16.07;79.82
18500;BME280;9379;52.134;11.576;2023-05-12T04:16:31;101053.78;;;16.36;78.60
18500;BME280;9379;52.134;11.576;2023-05-12T04:18:59;101044.81;;;16.61;79.20
18500;BME280;9379;52.134;11.576;2023-05-12T04:21:25;101047.28;;;17.05;75.59
18500;BME280;9379;52.134;11.576;2023-05-12T04:23:52;101043.06;;;17.35;74.14
18500;BME280;9379;52.134;11.576;2023-05-12T04:26:19;101055.16;;;17.31;75.41
18500;BME280;9379;52.134;11.576;2023-05-12T04:28:46;101058.81;;;16.97;75.71
18500;BME280;9379;52.134;11.576;2023-05-12T04:31:13;101061.38;;;16.48;78.48
18500;BME280;9379;52.134;11.576;2023-05-12T04:33:39;101066.06;;;16.54;78.68
18500;BME280;9379;52.134;11.576;2023-05-12T04:36:08;101066.22;;;16.95;77.56
18500;BME280;9379;52.134;11.576;2023-05-12T04:38:35;101060.22;;;17.50;73.92
18500;BME280;9379;52.134;11.576;2023-05-12T04:41:01;101064.72;;;17.82;72.38
18500;BME280;9379;52.134;11.576;2023-05-12T04:43:28;101065.53;;;17.99;73.37
18500;BME280;9379;52.134;11.576;2023-05-12T04:45:55;101066.75;;;17.56;74.72
18500;BME280;9379;52.134;11.576;2023-05-12T04:48:21;101078.31;;;17.24;75.95
18500;BME280;9379;52.134;11.576;2023-05-12T04:50:48;101073.13;;;17.30;75.61
18500;BME280;9379;52.134;11.576;2023-05-12T04:53:17;101078.66;;;17.20;75.69
18500;BME280;9379;52.134;11.576;2023-05-12T04:55:43;101083.19;;;17.20;77.23
18500;BME280;9379;52.134;11.576;2023-05-12T04:58:11;101072.94;;;17.56;76.64
18500;BME280;9379;52.134;11.576;2023-05-12T05:00:38;101082.19;;;17.62;75.90
18500;BME280;9379;52.134;11.576;2023-05-12T05:03:05;101082.91;;;17.72;73.16
18500;BME280;9379;52.134;11.576;2023-05-12T05:05:32;101079.16;;;17.81;72.81
18500;BME280;9379;52.134;11.576;2023-05-12T05:07:59;101090.13;;;17.71;73.42
18500;BME280;9379;52.134;11.576;2023-05-12T05:10:27;101086.25;;;17.49;74.65
18500;BME280;9379;52.134;11.576;2023-05-12T05:12:54;101075.63;;;17.89;73.38
18500;BME280;9379;52.134;11.576;2023-05-12T05:15:20;101083.34;;;17.92;72.62
18500;BME280;9379;52.134;11.576;2023-05-12T05:17:47;101093.97;;;17.85;72.85
18500;BME280;9379;52.134;11.576;2023-05-12T05:20:14;101089.25;;;17.79;71.37
18500;BME280;9379;52.134;11.576;2023-05-12T05:22:42;101090.81;;;18.29;71.35
18500;BME280;9379;52.134;11.576;2023-05-12T05:25:09;101099.22;;;18.26;71.17
18500;BME280;9379;52.134;11.576;2023-05-12T05:27:37;101103.69;;;17.94;72.83
18500;BME280;9379;52.134;11.576;2023-05-12T05:30:05;101106.38;;;17.94;73.10
18500;BME280;9379;52.134;11.576;2023-05-12T05:32:34;101100.78;;;18.20;72.77
18500;BME280;9379;52.134;11.576;2023-05-12T05:35:01;101108.38;;;18.08;72.62
18500;BME280;9379;52.134;11.576;2023-05-12T05:37:28;101109.16;;;18.25;72.28
18500;BME280;9379;52.134;11.576;2023-05-12T05:39:54;101107.63;;;18.31;71.77
18500;BME280;9379;52.134;11.576;2023-05-12T05:42:21;101100.22;;;18.41;71.29
18500;BME280;9379;52.134;11.576;2023-05-12T05:44:49;101103.19;;;18.46;70.65
18500;BME280;9379;52.134;11.576;2023-05-12T05:47:16;101115.91;;;18.21;71.47
18500;BME280;9379;52.134;11.576;2023-05-12T05:49:43;101104.78;;;18.32;70.64
18500;BME280;9379;52.134;11.576;2023-05-12T05:52:10;101105.69;;;18.56;71.24
18500;BME280;9379;52.134;11.576;2023-05-12T05:54:36;101110.53;;;18.21;71.72
18500;BME280;9379;52.134;11.576;2023-05-12T05:57:03;101109.25;;;18.48;71.92
18500;BME280;9379;52.134;11.576;2023-05-12T05:59:30;101118.25;;;18.16;71.44
18500;BME280;9379;52.134;11.576;2023-05-12T06:01:58;101119.84;;;18.50;71.87
18500;BME280;9379;52.134;11.576;2023-05-12T06:04:25;101122.84;;;18.94;69.85
18500;BME280;9379;52.134;11.576;2023-05-12T06:06:52;101121.81;;;19.03;69.17
18500;BME280;9379;52.134;11.576;2023-05-12T06:09:19;101118.28;;;19.03;69.36
18500;BME280;9379;52.134;11.576;2023-05-12T06:11:46;101126.88;;;18.98;70.46
18500;BME280;9379;52.134;11.576;2023-05-12T06:14:12;101129.34;;;18.77;70.83
18500;BME280;9379;52.134;11.576;2023-05-12T06:16:39;101128.63;;;18.83;69.73
18500;BME280;9379;52.134;11.576;2023-05-12T06:19:07;101126.97;;;19.13;68.63
18500;BME280;9379;52.134;11.576;2023-05-12T06:21:34;101122.94;;;19.09;68.99
18500;BME280;9379;52.134;11.576;2023-05-12T06:24:01;101129.53;;;19.29;69.70
18500;BME280;9379;52.134;11.576;2023-05-12T06:26:28;101126.59;;;19.39;69.08
18500;BME280;9379;52.134;11.576;2023-05-12T06:28:55;101130.38;;;19.30;68.85
18500;BME280;9379;52.134;11.576;2023-05-12T06:31:22;101127.72;;;19.44;68.55
18500;BME280;9379;52.134;11.576;2023-05-12T06:33:48;101129.16;;;19.78;69.23
18500;BME280;9379;52.134;11.576;2023-05-12T06:36:17;101130.81;;;19.64;69.62
18500;BME280;9379;52.134;11.576;2023-05-12T06:38:43;101128.53;;;19.91;70.17
18500;BME280;9379;52.134;11.576;2023-05-12T06:41:10;101128.72;;;19.89;68.18
18500;BME280;9379;52.134;11.576;2023-05-12T06:43:37;101132.78;;;19.24;68.94
18500;BME280;9379;52.134;11.576;2023-05-12T06:46:04;101133.47;;;19.18;70.08
18500;BME280;9379;52.134;11.576;2023-05-12T06:48:31;101122.31;;;19.90;67.78
18500;BME280;9379;52.134;11.576;2023-05-12T06:50:58;101138.78;;;19.35;69.45
18500;BME280;9379;52.134;11.576;2023-05-12T06:53:26;101149.50;;;19.66;67.65
18500;BME280;9379;52.134;11.576;2023-05-12T06:55:53;101147.00;;;19.33;69.71
18500;BME280;9379;52.134;11.576;2023-05-12T06:58:20;101147.19;;;19.54;69.00
18500;BME280;9379;52.134;11.576;2023-05-12T07:00:47;101149.84;;;19.40;69.25
18500;BME280;9379;52.134;11.576;2023-05-12T07:03:17;101149.16;;;19.46;68.47
18500;BME280;9379;52.134;11.576;2023-05-12T07:05:44;101144.50;;;19.77;68.84
18500;BME280;9379;52.134;11.576;2023-05-12T07:08:11;101146.19;;;19.78;69.49
18500;BME280;9379;52.134;11.576;2023-05-12T07:10:39;101149.38;;;19.82;69.42
18500;BME280;9379;52.134;11.576;2023-05-12T07:13:06;101142.78;;;19.99;68.08
18500;BME280;9379;52.134;11.576;2023-05-12T07:15:32;101147.81;;;20.02;67.45
18500;BME280;9379;52.134;11.576;2023-05-12T07:17:59;101152.41;;;19.79;67.40
18500;BME280;9379;52.134;11.576;2023-05-12T07:20:26;101151.94;;;19.75;66.51
18500;BME280;9379;52.134;11.576;2023-05-12T07:22:53;101147.38;;;20.14;65.24
18500;BME280;9379;52.134;11.576;2023-05-12T07:25:20;101157.78;;;19.64;64.30
18500;BME280;9379;52.134;11.576;2023-05-12T07:27:49;101162.06;;;19.50;64.79
18500;BME280;9379;52.134;11.576;2023-05-12T07:30:15;101161.22;;;19.50;66.13
18500;BME280;9379;52.134;11.576;2023-05-12T07:32:42;101151.97;;;19.90;65.83
18500;BME280;9379;52.134;11.576;2023-05-12T07:35:09;101156.41;;;19.68;65.78
18500;BME280;9379;52.134;11.576;2023-05-12T07:37:36;101154.16;;;20.09;65.51
18500;BME280;9379;52.134;11.576;2023-05-12T07:40:04;101159.47;;;20.03;65.21
18500;BME280;9379;52.134;11.576;2023-05-12T07:42:31;101164.53;;;19.83;62.22
18500;BME280;9379;52.134;11.576;2023-05-12T07:44:59;101160.97;;;20.35;61.34
18500;BME280;9379;52.134;11.576;2023-05-12T07:47:26;101152.94;;;20.50;63.11
18500;BME280;9379;52.134;11.576;2023-05-12T07:49:53;101153.38;;;20.68;61.88
18500;BME280;9379;52.134;11.576;2023-05-12T07:52:20;101161.09;;;20.86;61.79
18500;BME280;9379;52.134;11.576;2023-05-12T07:54:47;101159.78;;;20.96;62.33
18500;BME280;9379;52.134;11.576;2023-05-12T07:57:13;101160.81;;;20.95;60.01
18500;BME280;9379;52.134;11.576;2023-05-12T07:59:41;101152.72;;;22.02;59.05
18500;BME280;9379;52.134;11.576;2023-05-12T08:02:09;101157.88;;;21.97;56.42
18500;BME280;9379;52.134;11.576;2023-05-12T08:04:36;101151.22;;;21.72;57.99
18500;BME280;9379;52.134;11.576;2023-05-12T08:07:03;101157.06;;;22.25;58.03
18500;BME280;9379;52.134;11.576;2023-05-12T08:09:30;101159.72;;;21.97;56.33
18500;BME280;9379;52.134;11.576;2023-05-12T08:11:57;101154.94;;;22.55;57.84
18500;BME280;9379;52.134;11.576;2023-05-12T08:14:23;101154.47;;;22.45;57.78
18500;BME280;9379;52.134;11.576;2023-05-12T08:16:51;101159.59;;;22.33;56.38
18500;BME280;9379;52.134;11.576;2023-05-12T08:19:19;101151.19;;;22.49;54.87
18500;BME280;9379;52.134;11.576;2023-05-12T08:21:46;101147.50;;;23.05;54.40
18500;BME280;9379;52.134;11.576;2023-05-12T08:24:13;101146.00;;;23.02;56.83
18500;BME280;9379;52.134;11.576;2023-05-12T08:26:39;101153.53;;;23.07;54.63
18500;BME280;9379;52.134;11.576;2023-05-12T08:29:06;101155.41;;;22.58;56.14
18500;BME280;9379;52.134;11.576;2023-05-12T08:31:34;101149.53;;;22.20;55.19
18500;BME280;9379;52.134;11.576;2023-05-12T08:34:01;101142.69;;;22.59;55.19
18500;BME280;9379;52.134;11.576;2023-05-12T08:36:30;101153.88;;;21.93;57.91
18500;BME280;9379;52.134;11.576;2023-05-12T08:38:57;101146.22;;;23.00;56.47
18500;BME280;9379;52.134;11.576;2023-05-12T08:41:30;101140.78;;;22.18;57.61
18500;BME280;9379;52.134;11.576;2023-05-12T08:44:02;101150.66;;;22.32;55.32
18500;BME280;9379;52.134;11.576;2023-05-12T08:46:31;101134.66;;;22.37;56.51
18500;BME280;9379;52.134;11.576;2023-05-12T08:48:59;101144.50;;;22.52;48.13
18500;BME280;9379;52.134;11.576;2023-05-12T08:51:28;101141.91;;;22.78;47.08
18500;BME280;9379;52.134;11.576;2023-05-12T08:53:56;101142.06;;;23.11;46.69
18500;BME280;9379;52.134;11.576;2023-05-12T08:56:23;101136.19;;;22.94;46.19
18500;BME280;9379;52.134;11.576;2023-05-12T08:58:50;101138.28;;;22.92;46.02
18500;BME280;9379;52.134;11.576;2023-05-12T09:01:17;101126.44;;;23.07;44.73
18500;BME280;9379;52.134;11.576;2023-05-12T09:03:44;101123.53;;;23.21;44.96
18500;BME280;9379;52.134;11.576;2023-05-12T09:06:12;101126.47;;;23.33;44.67
18500;BME280;9379;52.134;11.576;2023-05-12T09:08:39;101131.50;;;23.43;44.30
18500;BME280;9379;52.134;11.576;2023-05-12T09:11:09;101129.88;;;23.68;44.70
18500;BME280;9379;52.134;11.576;2023-05-12T09:13:40;101129.00;;;23.54;44.12
18500;BME280;9379;52.134;11.576;2023-05-12T09:16:11;101125.31;;;23.62;43.66
18500;BME280;9379;52.134;11.576;2023-05-12T09:18:45;101134.81;;;23.32;43.77
18500;BME280;9379;52.134;11.576;2023-05-12T09:21:12;101133.38;;;23.29;43.59
18500;BME280;9379;52.134;11.576;2023-05-12T09:23:39;101134.03;;;23.51;43.38
18500;BME280;9379;52.134;11.576;2023-05-12T09:26:18;101125.97;;;22.96;43.56
18500;BME280;9379;52.134;11.576;2023-05-12T09:28:45;101125.72;;;23.85;43.02
18500;BME280;9379;52.134;11.576;2023-05-12T09:31:16;101128.41;;;23.99;42.96
18500;BME280;9379;52.134;11.576;2023-05-12T09:33:43;101125.88;;;23.44;42.18
18500;BME280;9379;52.134;11.576;2023-05-12T09:36:10;101119.88;;;23.62;41.86
18500;BME280;9379;52.134;11.576;2023-05-12T09:38:38;101123.78;;;24.06;41.94
18500;BME280;9379;52.134;11.576;2023-05-12T09:41:05;101122.56;;;24.08;43.30
18500;BME280;9379;52.134;11.576;2023-05-12T09:43:34;101113.38;;;24.09;42.14
18500;BME280;9379;52.134;11.576;2023-05-12T09:46:05;101119.75;;;24.48;41.61
18500;BME280;9379;52.134;11.576;2023-05-12T09:48:32;101123.59;;;23.81;39.85
18500;BME280;9379;52.134;11.576;2023-05-12T09:50:59;101122.53;;;24.86;41.59
18500;BME280;9379;52.134;11.576;2023-05-12T09:53:25;101120.31;;;24.70;38.33
18500;BME280;9379;52.134;11.576;2023-05-12T09:55:52;101124.84;;;24.05;39.58
18500;BME280;9379;52.134;11.576;2023-05-12T09:58:19;101124.38;;;24.41;39.27
18500;BME280;9379;52.134;11.576;2023-05-12T10:00:48;101124.59;;;24.46;38.64
18500;BME280;9379;52.134;11.576;2023-05-12T10:03:19;101123.66;;;24.65;39.80
18500;BME280;9379;52.134;11.576;2023-05-12T10:05:52;101119.16;;;24.39;39.36
18500;BME280;9379;52.134;11.576;2023-05-12T10:08:23;101122.31;;;24.43;38.91
18500;BME280;9379;52.134;11.576;2023-05-12T10:10:50;101123.53;;;24.47;39.32
18500;BME280;9379;52.134;11.576;2023-05-12T10:13:19;101106.81;;;24.88;39.65
18500;BME280;9379;52.134;11.576;2023-05-12T10:15:48;101102.50;;;25.19;39.71
18500;BME280;9379;52.134;11.576;2023-05-12T10:18:17;101124.00;;;25.58;39.84
18500;BME280;9379;52.134;11.576;2023-05-12T10:20:44;101124.53;;;25.42;39.41
18500;BME280;9379;52.134;11.576;2023-05-12T10:23:12;101119.97;;;25.36;38.71
18500;BME280;9379;52.134;11.576;2023-05-12T10:25:40;101113.41;;;25.75;41.23
18500;BME280;9379;52.134;11.576;2023-05-12T10:28:08;101121.88;;;24.46;40.71
18500;BME280;9379;52.134;11.576;2023-05-12T10:30:37;101114.59;;;24.85;39.32
18500;BME280;9379;52.134;11.576;2023-05-12T10:33:06;101111.75;;;25.68;38.86
18500;BME280;9379;52.134;11.576;2023-05-12T10:35:37;101117.72;;;26.08;38.31
18500;BME280;9379;52.134;11.576;2023-05-12T10:38:08;101113.28;;;25.88;38.53
18500;BME280;9379;52.134;11.576;2023-05-12T10:40:35;101113.38;;;26.00;38.19
18500;BME280;9379;52.134;11.576;2023-05-12T10:43:02;101108.66;;;25.71;36.85
18500;BME280;9379;52.134;11.576;2023-05-12T10:45:34;101117.44;;;24.96;38.63
18500;BME280;9379;52.134;11.576;2023-05-12T10:48:06;101113.84;;;26.40;38.25
18500;BME280;9379;52.134;11.576;2023-05-12T10:50:34;101109.88;;;26.36;38.29
18500;BME280;9379;52.134;11.576;2023-05-12T10:53:00;101097.75;;;26.69;38.53
18500;BME280;9379;52.134;11.576;2023-05-12T10:55:32;101100.78;;;26.79;37.27
18500;BME280;9379;52.134;11.576;2023-05-12T10:58:04;101096.81;;;26.02;38.45
18500;BME280;9379;52.134;11.576;2023-05-12T11:00:42;101114.66;;;25.48;37.60
18500;BME280;9379;52.134;11.576;2023-05-12T11:03:12;101108.63;;;26.14;38.88
18500;BME280;9379;52.134;11.576;2023-05-12T11:05:43;101110.72;;;26.55;38.82
18500;BME280;9379;52.134;11.576;2023-05-12T11:08:11;101091.44;;;26.87;38.46
18500;BME280;9379;52.134;11.576;2023-05-12T11:10:40;101086.94;;;27.11;38.47
18500;BME280;9379;52.134;11.576;2023-05-12T11:13:08;101108.28;;;26.47;37.23
18500;BME280;9379;52.134;11.576;2023-05-12T11:15:35;101097.97;;;26.97;37.64
18500;BME280;9379;52.134;11.576;2023-05-12T11:18:02;101094.03;;;26.27;38.13
18500;BME280;9379;52.134;11.576;2023-05-12T11:20:30;101091.16;;;26.58;38.31
18500;BME280;9379;52.134;11.576;2023-05-12T11:22:57;101106.03;;;26.92;37.45
18500;BME280;9379;52.134;11.576;2023-05-12T11:25:25;101099.03;;;26.30;37.74
18500;BME280;9379;52.134;11.576;2023-05-12T11:27:52;101102.38;;;26.32;39.42
18500;BME280;9379;52.134;11.576;2023-05-12T11:30:19;101102.53;;;25.75;38.37
18500;BME280;9379;52.134;11.576;2023-05-12T11:32:46;101098.22;;;26.66;37.54
18500;BME280;9379;52.134;11.576;2023-05-12T11:35:14;101092.38;;;26.62;37.24
18500;BME280;9379;52.134;11.576;2023-05-12T11:37:44;101100.72;;;26.49;38.00
18500;BME280;9379;52.134;11.576;2023-05-12T11:40:15;101099.75;;;26.92;37.51
18500;BME280;9379;52.134;11.576;2023-05-12T11:42:43;101088.44;;;25.22;37.99
18500;BME280;9379;52.134;11.576;2023-05-12T11:45:20;101106.06;;;26.19;37.70
18500;BME280;9379;52.134;11.576;2023-05-12T11:47:47;101098.75;;;26.74;37.30
18500;BME280;9379;52.134;11.576;2023-05-12T11:50:19;101097.31;;;27.44;37.92
18500;BME280;9379;52.134;11.576;2023-05-12T11:52:48;101095.72;;;26.64;37.43
18500;BME280;9379;52.134;11.576;2023-05-12T11:55:19;101100.47;;;26.32;37.88
18500;BME280;9379;52.134;11.576;2023-05-12T11:57:55;101105.25;;;25.75;38.42
18500;BME280;9379;52.134;11.576;2023-05-12T12:00:27;101104.59;;;25.98;39.17
18500;BME280;9379;52.134;11.576;2023-05-12T12:03:05;101108.81;;;25.44;39.62
18500;BME280;9379;52.134;11.576;2023-05-12T12:05:32;101105.78;;;25.59;38.46
18500;BME280;9379;52.134;11.576;2023-05-12T12:08:05;101108.63;;;26.87;39.25
18500;BME280;9379;52.134;11.576;2023-05-12T12:10:32;101101.72;;;26.85;37.48
18500;BME280;9379;52.134;11.576;2023-05-12T12:12:59;101086.97;;;26.74;37.09
18500;BME280;9379;52.134;11.576;2023-05-12T12:15:27;101096.66;;;27.18;38.19
18500;BME280;9379;52.134;11.576;2023-05-12T12:17:54;101093.97;;;26.70;37.80
18500;BME280;9379;52.134;11.576;2023-05-12T12:20:21;101094.97;;;27.47;37.01
18500;BME280;9379;52.134;11.576;2023-05-12T12:22:49;101107.50;;;27.25;37.53
18500;BME280;9379;52.134;11.576;2023-05-12T12:25:18;101106.47;;;27.08;37.88
18500;BME280;9379;52.134;11.576;2023-05-12T12:27:45;101105.16;;;26.07;37.98
18500;BME280;9379;52.134;11.576;2023-05-12T12:30:13;101112.66;;;25.62;39.38
18500;BME280;9379;52.134;11.576;2023-05-12T12:32:41;101101.88;;;25.98;39.65
18500;BME280;9379;52.134;11.576;2023-05-12T12:35:08;101108.13;;;25.80;39.55
18500;BME280;9379;52.134;11.576;2023-05-12T12:37:36;101104.44;;;26.55;39.12
18500;BME280;9379;52.134;11.576;2023-05-12T12:40:04;101086.56;;;26.59;38.39
18500;BME280;9379;52.134;11.576;2023-05-12T12:42:35;101099.34;;;26.77;38.17
18500;BME280;9379;52.134;11.576;2023-05-12T12:45:03;101096.28;;;27.56;38.25
18500;BME280;9379;52.134;11.576;2023-05-12T12:47:30;101092.75;;;26.96;38.44
18500;BME280;9379;52.134;11.576;2023-05-12T12:49:57;101108.16;;;25.99;39.24
18500;BME280;9379;52.134;11.576;2023-05-12T12:52:24;101100.13;;;26.47;38.60